»·PEaware :: N412QL KSBA-KBUR

N412QL :: KSBA-KBUR

FLIGHT INFORMATION

Flight Status: Arrived
Operator: Privately registered:
United States
More flights under this callsign
Pilot: Julien M. (24307)
Aircraft: Unknown
(DA62)
More flights by this aircraft type
Origin: KSBA Santa Barbara Mun
United States
Destination: KBUR Bob Hope-Burbank
United States
More flights between these airports :: More routes between these airports
Route: +
File this flight plan on PilotEdge
Remarks: Cat 8
Altitude:
(Current/Filed)
7,500ft
Speed:
(Current/Filed)
0kts
Departed: 20-Apr-19 10:47 AM
Arrived: 20-Apr-19 11:20 AM
Distance/Time
Traveled:
74nm/0:33
Distance/Time
To Go:
Arrived

Flight Plot

Page will automatically refresh every two minutes.


Map Options




Map Legend


Flown Route
Filed Route
Departure Airport
Arrival Airport
Navaid (VOR, NDB)
Fix

Horizontal Profiles

Position Reports

Time Latitude Longitude Heading Altitude Ground
Speed
20-Apr-19 10:28 34.432569 -119.835086 71 17ft 0kts
20-Apr-19 10:29 34.432569 -119.835086 71 17ft 0kts
20-Apr-19 10:30 34.432569 -119.835086 71 17ft 0kts
20-Apr-19 10:31 34.432569 -119.835086 71 17ft 0kts
20-Apr-19 10:32 34.432569 -119.835086 71 17ft 0kts
20-Apr-19 10:33 34.432569 -119.835086 71 17ft 0kts
20-Apr-19 10:34 34.432569 -119.835086 71 17ft 0kts
20-Apr-19 10:35 34.432569 -119.835086 71 17ft 0kts
20-Apr-19 10:36 34.432569 -119.835086 71 17ft 0kts
20-Apr-19 10:37 34.432586 -119.835003 89 17ft 2kts
20-Apr-19 10:38 34.429958 -119.835307 179 17ft 18kts
20-Apr-19 10:39 34.429490 -119.835298 177 17ft 0kts
20-Apr-19 10:40 34.426715 -119.837645 268 17ft 16kts
20-Apr-19 10:41 34.426660 -119.840160 266 17ft 18kts
20-Apr-19 10:42 34.426492 -119.848033 267 17ft 25kts
20-Apr-19 10:43 34.426780 -119.853909 317 17ft 0kts
20-Apr-19 10:44 34.426780 -119.853909 317 17ft 0kts
20-Apr-19 10:45 34.427186 -119.854110 6 17ft 7kts
20-Apr-19 10:46 34.428133 -119.834906 81 464ft 92kts
20-Apr-19 10:47 34.432265 -119.803896 81 1308ft 97kts
20-Apr-19 10:48 34.434498 -119.767060 116 1799ft 117kts
20-Apr-19 10:49 34.414579 -119.735407 118 2639ft 119kts
20-Apr-19 10:50 34.405336 -119.696878 100 3462ft 121kts
20-Apr-19 10:51 34.399210 -119.656437 99 4387ft 123kts
20-Apr-19 10:52 34.393181 -119.615603 99 5498ft 124kts
20-Apr-19 10:53 34.387058 -119.574181 99 6586ft 126kts
20-Apr-19 10:54 34.380802 -119.531961 99 7660ft 128kts
20-Apr-19 10:55 34.374281 -119.488007 99 8431ft 150kts
20-Apr-19 10:56 34.366176 -119.433566 99 8427ft 170kts
20-Apr-19 10:57 34.357699 -119.376825 99 8426ft 172kts
20-Apr-19 10:58 34.349136 -119.319711 100 8426ft 172kts
20-Apr-19 10:59 34.340564 -119.262633 100 8426ft 172kts
20-Apr-19 11:00 34.332027 -119.205480 100 8427ft 174kts
20-Apr-19 11:01 34.323224 -119.147220 100 8426ft 176kts
20-Apr-19 11:02 34.314338 -119.088709 100 8426ft 176kts
20-Apr-19 11:03 34.305444 -119.030356 100 8426ft 176kts
20-Apr-19 11:04 34.296490 -118.971804 100 8426ft 176kts
20-Apr-19 11:05 34.287455 -118.913426 100 8426ft 176kts
20-Apr-19 11:06 34.278397 -118.854857 100 8426ft 176kts
20-Apr-19 11:07 34.269373 -118.796452 100 8272ft 176kts
20-Apr-19 11:08 34.260432 -118.738741 100 7769ft 174kts
20-Apr-19 11:09 34.251535 -118.681516 100 7041ft 170kts
20-Apr-19 11:10 34.242948 -118.626445 100 6245ft 167kts
20-Apr-19 11:11 34.234534 -118.572665 100 5435ft 159kts
20-Apr-19 11:12 34.226358 -118.520540 100 4631ft 156kts
20-Apr-19 11:13 34.218275 -118.469157 100 3830ft 155kts
20-Apr-19 11:14 34.210526 -118.420075 100 3421ft 134kts
20-Apr-19 11:15 34.220873 -118.379014 33 2632ft 151kts
20-Apr-19 11:16 34.258258 -118.367872 315 1880ft 142kts
20-Apr-19 11:17 34.240624 -118.371409 133 1743ft 125kts
20-Apr-19 11:18 34.214244 -118.360930 166 969ft 92kts
20-Apr-19 11:19 34.198884 -118.357899 269 781ft 7kts
20-Apr-19 11:20 34.198884 -118.357926 269 781ft 0kts
20-Apr-19 11:21 34.198942 -118.361163 272 781ft 21kts
20-Apr-19 11:22 34.200276 -118.363504 175 781ft 0kts
20-Apr-19 11:23 34.200276 -118.363504 175 781ft 0kts
20-Apr-19 11:24 34.200276 -118.363504 175 781ft 0kts
20-Apr-19 11:25 34.200276 -118.363504 175 781ft 0kts
20-Apr-19 11:26 34.200276 -118.363504 175 781ft 0kts
20-Apr-19 11:27 34.200276 -118.363504 175 781ft 0kts
20-Apr-19 11:28 34.200276 -118.363504 175 781ft 0kts
20-Apr-19 11:29 34.200276 -118.363504 175 781ft 0kts
20-Apr-19 11:31 34.200276 -118.363504 175 781ft 0kts
20-Apr-19 11:32 34.200276 -118.363504 175 781ft 0kts
20-Apr-19 11:33 34.200276 -118.363504 175 781ft 0kts
20-Apr-19 11:34 34.200276 -118.363504 175 781ft 0kts
20-Apr-19 11:35 34.200276 -118.363504 175 781ft 0kts

Navigation Log

Ident Type
Flight plan parsing failed, navigation log unavailable